Time;durP1;ratioP1;P1;durP2;ratioP2;P2;SDS_P1;SDS_P2;PMS_P1;PMS_P2;Temp;Humidity;BMP_temperature;BMP_pressure;BME280_temperature;BME280_humidity;BME280_pressure;Samples;Min_cycle;Max_cycle;Signal;HPM_P1;HPM_P2
2022/02/09 00:03:08;;;;;;;6.15;0.80;;;;;;;;;;2075897;28;20488;-63
2022/02/09 00:07:19;;;;;;;3.22;0.80;;;;;;;;;;2074625;28;20026;-63
2022/02/09 00:08:38;;;;;;;3.67;1.20;;;;;;;;;;2075890;28;20061;-64
2022/02/09 00:09:57;;;;;;;4.07;1.00;;;;;;;;;;2074581;28;20034;-63
2022/02/09 00:11:25;;;;;;;5.05;0.80;;;;;;;;;;2074706;28;20509;-64
2022/02/09 00:12:58;;;;;;;4.93;0.85;;;;;;;;;;2075090;28;20390;-64
2022/02/09 00:15:46;;;;;;;4.75;1.10;;;;;;;;;;2074950;28;20037;-63
2022/02/09 00:18:54;;;;;;;2.05;1.08;;;;;;;;;;2075766;28;20391;-63
2022/02/09 00:21:50;;;;;;;3.08;0.95;;;;;;;;;;2075937;28;20030;-64
2022/02/09 00:41:26;;;;;;;3.42;0.98;;;;;;;;;;2076658;28;20022;-64
2022/02/09 00:44:32;;;;;;;6.05;1.33;;;;;;;;;;2075352;28;20503;-64
2022/02/09 00:59:15;;;;;;;5.47;0.90;;;;;;;;;;2076233;28;20478;-63
2022/02/09 01:38:07;;;;;;;6.20;1.33;;;;;;;;;;2075770;28;20053;-62
2022/02/09 01:39:47;;;;;;;5.93;1.10;;;;;;;;;;2077471;28;20104;-63
2022/02/09 01:44:35;;;;;;;2.78;1.13;;;;;;;;;;2075958;28;20120;-63
2022/02/09 01:56:36;;;;;;;7.47;1.00;;;;;;;;;;2074140;28;20029;-63
2022/02/09 01:57:55;;;;;;;9.00;1.52;;;;;;;;;;2076671;28;20088;-63
2022/02/09 01:59:14;;;;;;;6.45;1.10;;;;;;;;;;2073827;28;20103;-62
2022/02/09 02:00:33;;;;;;;3.83;0.85;;;;;;;;;;2073819;28;20034;-64
2022/02/09 02:01:52;;;;;;;4.13;0.88;;;;;;;;;;2072921;28;20113;-63
2022/02/09 02:03:11;;;;;;;5.45;1.55;;;;;;;;;;2072303;28;20116;-63
2022/02/09 02:04:30;;;;;;;4.47;1.38;;;;;;;;;;2074112;28;20030;-63
2022/02/09 02:05:49;;;;;;;5.50;1.17;;;;;;;;;;2075838;28;20041;-63
2022/02/09 02:07:24;;;;;;;5.10;1.17;;;;;;;;;;2075270;28;20037;-63
2022/02/09 02:08:47;;;;;;;6.35;1.45;;;;;;;;;;2075637;28;20387;-63
2022/02/09 02:10:09;;;;;;;5.55;1.08;;;;;;;;;;2075573;28;20450;-63
2022/02/09 02:11:38;;;;;;;7.45;1.20;;;;;;;;;;2075343;28;20117;-63
2022/02/09 02:14:38;;;;;;;5.65;0.98;;;;;;;;;;2075903;28;20491;-63
2022/02/09 02:16:18;;;;;;;7.70;1.20;;;;;;;;;;2076123;28;20030;-64
2022/02/09 02:17:46;;;;;;;6.68;1.70;;;;;;;;;;2075358;28;20042;-63
2022/02/09 02:40:18;;;;;;;4.22;1.13;;;;;;;;;;2074624;28;20030;-65
2022/02/09 02:42:38;;;;;;;7.05;1.20;;;;;;;;;;2075905;28;20029;-64
2022/02/09 02:45:48;;;;;;;9.60;1.10;;;;;;;;;;2075903;28;20030;-64
2022/02/09 03:08:37;;;;;;;4.32;0.93;;;;;;;;;;2075519;28;20030;-64
2022/02/09 03:14:25;;;;;;;6.95;1.05;;;;;;;;;;2075373;28;20034;-63
2022/02/09 03:15:52;;;;;;;10.43;1.50;;;;;;;;;;2075557;28;20030;-63
2022/02/09 03:17:17;;;;;;;7.45;1.13;;;;;;;;;;2075914;28;20061;-63
2022/02/09 03:20:30;;;;;;;4.63;1.27;;;;;;;;;;2076299;28;20523;-63
2022/02/09 03:22:15;;;;;;;9.43;1.15;;;;;;;;;;2073771;28;20057;-63
2022/02/09 03:23:50;;;;;;;4.70;1.25;;;;;;;;;;2074040;28;20038;-63
2022/02/09 03:27:15;;;;;;;9.73;1.15;;;;;;;;;;2075705;28;20029;-63
2022/02/09 03:45:07;;;;;;;12.77;2.22;;;;;;;;;;2074601;28;20496;-63
2022/02/09 03:46:48;;;;;;;8.05;2.28;;;;;;;;;;2074709;28;20548;-62
2022/02/09 03:54:21;;;;;;;3.53;0.88;;;;;;;;;;2110335;28;20035;-65
2022/02/09 03:57:21;;;;;;;5.75;1.10;;;;;;;;;;2076357;28;20034;-63
2022/02/09 03:58:40;;;;;;;6.22;1.02;;;;;;;;;;2075290;28;20030;-63
2022/02/09 04:00:00;;;;;;;13.55;2.20;;;;;;;;;;2076543;28;20037;-63
2022/02/09 04:01:20;;;;;;;8.57;1.40;;;;;;;;;;2075701;28;20022;-63
2022/02/09 04:02:39;;;;;;;7.22;1.30;;;;;;;;;;2076248;28;20101;-63
2022/02/09 04:03:59;;;;;;;7.53;1.27;;;;;;;;;;2077100;28;20029;-63
2022/02/09 04:05:19;;;;;;;7.70;1.83;;;;;;;;;;2077373;28;20041;-63
2022/02/09 04:06:38;;;;;;;5.35;1.45;;;;;;;;;;2077045;28;20170;-63
2022/02/09 04:07:58;;;;;;;12.98;1.73;;;;;;;;;;2076994;28;20037;-64
2022/02/09 04:09:20;;;;;;;10.18;1.48;;;;;;;;;;2075886;28;20033;-63
2022/02/09 04:10:45;;;;;;;10.30;1.90;;;;;;;;;;2077148;28;20116;-63
2022/02/09 04:13:03;;;;;;;8.10;1.27;;;;;;;;;;2076304;28;20120;-63
2022/02/09 04:13:54;;;;;;;8.02;1.50;;;;;;;;;;2078747;28;20116;-64
2022/02/09 04:15:23;;;;;;;8.02;1.70;;;;;;;;;;2076876;28;20030;-64
2022/02/09 04:18:14;;;;;;;7.10;1.73;;;;;;;;;;2076679;28;20025;-63
2022/02/09 04:36:29;;;;;;;8.38;1.83;;;;;;;;;;2076165;28;20093;-63
2022/02/09 04:38:07;;;;;;;8.15;2.15;;;;;;;;;;2077141;28;20033;-63
2022/02/09 04:39:33;;;;;;;15.73;2.17;;;;;;;;;;2075372;28;20076;-63
2022/02/09 04:50:00;;;;;;;13.43;2.25;;;;;;;;;;2075945;28;20484;-63
2022/02/09 04:54:38;;;;;;;10.25;2.08;;;;;;;;;;2075033;28;20078;-63
2022/02/09 04:56:01;;;;;;;14.05;2.13;;;;;;;;;;2076117;28;20510;-61
2022/02/09 04:57:32;;;;;;;6.03;1.77;;;;;;;;;;2072538;28;20042;-63
2022/02/09 04:59:08;;;;;;;8.10;2.25;;;;;;;;;;2076541;28;20511;-63
2022/02/09 05:00:37;;;;;;;14.80;2.58;;;;;;;;;;2075378;28;20037;-63
2022/02/09 05:17:40;;;;;;;9.23;1.60;;;;;;;;;;2116683;27;20027;-63
2022/02/09 05:19:29;;;;;;;8.55;2.10;;;;;;;;;;2076821;28;20380;-64
2022/02/09 05:27:52;;;;;;;14.15;2.55;;;;;;;;;;2074609;28;20025;-64
2022/02/09 05:29:11;;;;;;;16.55;2.80;;;;;;;;;;2075289;28;20022;-65
2022/02/09 05:30:30;;;;;;;12.77;2.13;;;;;;;;;;2074350;28;20116;-64
2022/02/09 05:31:50;;;;;;;17.10;2.78;;;;;;;;;;2074427;28;20488;-64
2022/02/09 05:33:09;;;;;;;10.55;2.45;;;;;;;;;;2075737;28;20017;-64
2022/02/09 05:34:27;;;;;;;8.68;2.03;;;;;;;;;;2076495;28;20396;-64
2022/02/09 05:35:47;;;;;;;19.00;2.63;;;;;;;;;;2075771;28;20453;-65
2022/02/09 05:37:06;;;;;;;11.05;2.70;;;;;;;;;;2075548;28;20029;-64
2022/02/09 05:38:25;;;;;;;12.32;2.05;;;;;;;;;;2074854;28;20380;-64
2022/02/09 05:39:44;;;;;;;11.50;2.60;;;;;;;;;;2076215;28;20042;-65
2022/02/09 05:41:03;;;;;;;16.00;1.63;;;;;;;;;;2075494;28;20100;-64
2022/02/09 05:42:22;;;;;;;10.02;2.60;;;;;;;;;;2075118;28;20468;-65
2022/02/09 05:43:41;;;;;;;14.30;2.13;;;;;;;;;;2074983;28;20360;-64
2022/02/09 05:45:06;;;;;;;10.25;2.28;;;;;;;;;;2074807;28;20450;-64
2022/02/09 05:47:00;;;;;;;15.90;2.33;;;;;;;;;;2076586;28;20034;-64
2022/02/09 05:49:49;;;;;;;13.43;2.47;;;;;;;;;;2075862;28;20427;-64
2022/02/09 05:51:16;;;;;;;7.25;2.05;;;;;;;;;;2075267;28;20042;-64
2022/02/09 05:52:56;;;;;;;13.65;2.15;;;;;;;;;;2075601;28;20120;-64
2022/02/09 05:55:49;;;;;;;18.25;3.63;;;;;;;;;;2074242;28;20369;-64
2022/02/09 05:57:27;;;;;;;13.80;2.38;;;;;;;;;;2075237;28;20030;-64
2022/02/09 05:58:50;;;;;;;18.30;2.88;;;;;;;;;;2076619;28;20037;-64
2022/02/09 06:00:10;;;;;;;15.50;2.42;;;;;;;;;;2075676;28;20014;-64
2022/02/09 06:01:29;;;;;;;16.23;3.03;;;;;;;;;;2076364;28;20038;-64
2022/02/09 06:02:48;;;;;;;18.88;2.28;;;;;;;;;;2074985;28;20030;-64
2022/02/09 06:04:07;;;;;;;19.27;2.70;;;;;;;;;;2075784;28;20029;-64
2022/02/09 06:05:26;;;;;;;12.25;2.30;;;;;;;;;;2076091;28;20034;-64
2022/02/09 06:06:45;;;;;;;19.00;3.85;;;;;;;;;;2074936;28;20029;-64
2022/02/09 06:08:04;;;;;;;13.90;2.33;;;;;;;;;;2075711;28;20484;-64
2022/02/09 06:09:23;;;;;;;14.85;2.80;;;;;;;;;;2075877;28;20030;-64
2022/02/09 06:10:50;;;;;;;19.30;3.35;;;;;;;;;;2075448;28;20073;-64
2022/02/09 06:12:20;;;;;;;16.45;2.70;;;;;;;;;;2075491;28;20068;-64
2022/02/09 06:14:00;;;;;;;12.23;2.58;;;;;;;;;;2075136;28;20026;-64
2022/02/09 06:20:13;;;;;;;11.65;3.05;;;;;;;;;;2074524;28;20022;-64
2022/02/09 06:21:32;;;;;;;18.92;3.22;;;;;;;;;;2077177;28;20050;-64
2022/02/09 06:22:51;;;;;;;16.42;2.63;;;;;;;;;;2083400;28;20491;-64
2022/02/09 06:24:10;;;;;;;15.93;2.75;;;;;;;;;;2074997;28;20033;-64
2022/02/09 06:25:30;;;;;;;12.55;2.70;;;;;;;;;;2073859;28;20025;-63
2022/02/09 06:26:49;;;;;;;21.05;2.55;;;;;;;;;;2074345;28;20029;-63
2022/02/09 06:28:07;;;;;;;27.13;3.25;;;;;;;;;;2074768;28;20437;-63
2022/02/09 06:29:26;;;;;;;14.75;2.97;;;;;;;;;;2074691;28;20116;-64
2022/02/09 06:30:45;;;;;;;20.45;3.22;;;;;;;;;;2074278;28;20697;-63
2022/02/09 06:32:08;;;;;;;19.05;2.90;;;;;;;;;;2074032;28;20037;-66
2022/02/09 06:33:27;;;;;;;22.23;3.13;;;;;;;;;;2073635;28;20029;-66
2022/02/09 06:34:47;;;;;;;23.15;3.08;;;;;;;;;;2074326;28;20034;-64
2022/02/09 06:36:09;;;;;;;14.82;2.53;;;;;;;;;;2075901;28;20033;-66
2022/02/09 06:37:46;;;;;;;19.23;2.75;;;;;;;;;;2075417;27;20049;-64
2022/02/09 06:39:07;;;;;;;23.70;3.08;;;;;;;;;;2074893;28;20101;-65
2022/02/09 06:40:26;;;;;;;18.27;3.05;;;;;;;;;;2075512;28;20038;-66
2022/02/09 06:41:45;;;;;;;20.42;2.78;;;;;;;;;;2073741;28;20127;-65
2022/02/09 06:43:04;;;;;;;18.23;3.58;;;;;;;;;;2074572;28;20523;-64
2022/02/09 06:44:25;;;;;;;18.08;3.38;;;;;;;;;;2076277;28;20038;-64
2022/02/09 06:45:44;;;;;;;16.85;3.05;;;;;;;;;;2075021;28;20145;-64
2022/02/09 06:47:03;;;;;;;15.55;3.10;;;;;;;;;;2075409;28;20038;-64
2022/02/09 06:48:22;;;;;;;17.67;3.47;;;;;;;;;;2075349;28;20037;-64
2022/02/09 06:49:42;;;;;;;15.02;2.95;;;;;;;;;;2074258;28;20041;-64
2022/02/09 06:51:08;;;;;;;23.77;3.55;;;;;;;;;;2075612;28;20400;-64
2022/02/09 06:52:28;;;;;;;11.82;2.20;;;;;;;;;;2075275;28;20057;-64
2022/02/09 06:54:04;;;;;;;16.67;2.58;;;;;;;;;;2075010;28;20030;-64
2022/02/09 06:55:23;;;;;;;26.48;2.75;;;;;;;;;;2077498;27;20026;-65
2022/02/09 06:58:16;;;;;;;21.05;3.08;;;;;;;;;;2073750;28;20022;-65
2022/02/09 06:59:41;;;;;;;13.90;2.72;;;;;;;;;;2075452;28;20030;-64
2022/02/09 07:01:00;;;;;;;22.63;3.13;;;;;;;;;;2075661;28;20030;-64
2022/02/09 07:02:19;;;;;;;16.83;2.97;;;;;;;;;;2075026;28;20034;-64
2022/02/09 07:03:38;;;;;;;22.73;3.25;;;;;;;;;;2075300;28;20034;-64
2022/02/09 07:04:57;;;;;;;18.17;3.10;;;;;;;;;;2074484;28;20150;-64
2022/02/09 07:06:16;;;;;;;12.07;2.60;;;;;;;;;;2074911;28;20030;-64
2022/02/09 07:07:35;;;;;;;25.92;3.88;;;;;;;;;;2075578;28;20491;-64
2022/02/09 07:08:54;;;;;;;18.80;3.20;;;;;;;;;;2075709;28;20041;-64
2022/02/09 07:10:13;;;;;;;24.38;3.85;;;;;;;;;;2074950;28;20100;-65
2022/02/09 07:11:32;;;;;;;23.05;3.72;;;;;;;;;;2074677;28;20162;-65
2022/02/09 07:12:51;;;;;;;25.95;3.75;;;;;;;;;;2074482;28;20037;-65
2022/02/09 07:14:10;;;;;;;20.23;2.90;;;;;;;;;;2075228;28;20083;-64
2022/02/09 07:15:34;;;;;;;28.08;3.70;;;;;;;;;;2074346;28;20119;-65
2022/02/09 07:16:53;;;;;;;21.95;3.22;;;;;;;;;;2071898;28;20492;-64
2022/02/09 07:18:14;;;;;;;21.73;3.05;;;;;;;;;;2073668;28;20034;-65
2022/02/09 07:19:33;;;;;;;18.00;3.20;;;;;;;;;;2074411;28;20033;-65
2022/02/09 07:22:16;;;;;;;23.33;3.90;;;;;;;;;;2074216;28;20038;-64
2022/02/09 07:25:06;;;;;;;25.88;3.67;;;;;;;;;;2074798;28;20030;-64
2022/02/09 07:27:23;;;;;;;13.88;3.00;;;;;;;;;;2074873;28;20026;-64
2022/02/09 07:28:10;;;;;;;19.80;3.00;;;;;;;;;;2076776;28;20041;-63
2022/02/09 07:29:30;;;;;;;21.88;3.53;;;;;;;;;;2075516;28;20030;-66
2022/02/09 07:30:50;;;;;;;19.85;4.28;;;;;;;;;;2074945;28;20026;-64
2022/02/09 07:32:08;;;;;;;17.58;3.30;;;;;;;;;;2076889;28;20026;-66
2022/02/09 07:33:28;;;;;;;20.20;3.65;;;;;;;;;;2073859;28;20168;-63
2022/02/09 07:34:47;;;;;;;19.00;3.53;;;;;;;;;;2077631;28;20109;-64
2022/02/09 07:36:06;;;;;;;25.75;4.20;;;;;;;;;;2075481;28;20268;-64
2022/02/09 07:37:24;;;;;;;22.75;3.88;;;;;;;;;;2067638;28;20488;-64
2022/02/09 07:38:44;;;;;;;16.10;3.03;;;;;;;;;;2067408;28;20030;-66
2022/02/09 07:40:05;;;;;;;24.48;3.75;;;;;;;;;;2065308;28;20054;-64
2022/02/09 07:41:24;;;;;;;20.00;3.03;;;;;;;;;;2067102;28;20031;-65
2022/02/09 07:42:53;;;;;;;24.45;3.80;;;;;;;;;;2066099;28;20038;-64
2022/02/09 07:45:58;;;;;;;22.13;3.55;;;;;;;;;;2067054;28;20038;-65
2022/02/09 07:49:21;;;;;;;15.68;3.22;;;;;;;;;;2109679;28;20431;-64
2022/02/09 07:50:46;;;;;;;23.67;3.45;;;;;;;;;;2066950;28;20030;-65
2022/02/09 07:52:19;;;;;;;16.55;2.50;;;;;;;;;;2064971;28;20033;-64
2022/02/09 07:53:48;;;;;;;20.00;3.20;;;;;;;;;;2065815;28;20018;-65
2022/02/09 07:55:07;;;;;;;22.35;4.18;;;;;;;;;;2066854;28;20496;-66
2022/02/09 07:56:33;;;;;;;18.08;2.70;;;;;;;;;;2066384;28;20504;-65
2022/02/09 07:57:52;;;;;;;15.52;3.30;;;;;;;;;;2064731;28;20034;-65
2022/02/09 07:59:13;;;;;;;22.90;3.35;;;;;;;;;;2066702;28;20473;-65
2022/02/09 08:00:32;;;;;;;21.90;3.88;;;;;;;;;;2065089;28;20023;-64
2022/02/09 08:01:51;;;;;;;21.83;3.53;;;;;;;;;;2063511;28;20034;-63
2022/02/09 08:03:10;;;;;;;25.67;3.10;;;;;;;;;;2065468;28;20686;-64
2022/02/09 08:04:29;;;;;;;13.50;2.58;;;;;;;;;;2066116;28;20027;-67
2022/02/09 08:05:48;;;;;;;12.38;2.40;;;;;;;;;;2067417;28;20429;-64
2022/02/09 08:07:07;;;;;;;16.42;3.45;;;;;;;;;;2066222;28;20484;-64
2022/02/09 08:08:32;;;;;;;14.82;2.88;;;;;;;;;;2066862;28;20034;-63
2022/02/09 08:09:51;;;;;;;19.05;2.80;;;;;;;;;;2065453;28;20072;-63
2022/02/09 08:26:12;;;;;;;12.23;2.85;;;;;;;;;;2066830;28;20449;-64
2022/02/09 08:30:03;;;;;;;23.70;2.92;;;;;;;;;;2067159;28;20404;-63
2022/02/09 08:31:44;;;;;;;13.18;2.58;;;;;;;;;;2067204;28;20030;-64
2022/02/09 08:33:07;;;;;;;18.05;4.07;;;;;;;;;;2066245;28;20168;-64
2022/02/09 08:34:26;;;;;;;20.40;3.45;;;;;;;;;;2066254;28;20117;-63
2022/02/09 08:35:46;;;;;;;16.20;2.38;;;;;;;;;;2066331;28;20061;-65
2022/02/09 08:37:06;;;;;;;14.48;2.80;;;;;;;;;;2067032;28;20487;-64
2022/02/09 08:38:29;;;;;;;20.17;2.70;;;;;;;;;;2065647;28;20513;-64
2022/02/09 08:39:49;;;;;;;;;;;;;;;;;;2067780;28;20038;-64
2022/02/09 08:41:08;;;;;;;19.45;3.00;;;;;;;;;;2067034;28;20501;-64
2022/02/09 08:42:27;;;;;;;19.10;2.53;;;;;;;;;;2067482;28;20034;-64
2022/02/09 08:43:46;;;;;;;17.83;3.05;;;;;;;;;;2067790;28;20120;-64
2022/02/09 08:45:06;;;;;;;16.35;3.20;;;;;;;;;;2067511;28;20034;-65
2022/02/09 08:46:26;;;;;;;14.45;2.95;;;;;;;;;;2069656;28;20030;-64
2022/02/09 08:47:45;;;;;;;19.73;3.40;;;;;;;;;;2066984;28;20113;-64
2022/02/09 08:49:04;;;;;;;11.15;2.67;;;;;;;;;;2067610;28;20038;-64
2022/02/09 08:50:24;;;;;;;16.33;3.70;;;;;;;;;;2066233;28;20475;-64
2022/02/09 08:51:43;;;;;;;14.25;2.42;;;;;;;;;;2066102;28;20034;-64
2022/02/09 08:53:04;;;;;;;19.52;3.20;;;;;;;;;;2068172;28;20026;-64
2022/02/09 08:54:23;;;;;;;17.35;2.83;;;;;;;;;;2067998;28;20493;-65
2022/02/09 08:55:42;;;;;;;16.00;2.80;;;;;;;;;;2067235;28;20105;-63
2022/02/09 08:57:08;;;;;;;15.38;2.80;;;;;;;;;;2067291;28;20061;-63
2022/02/09 08:58:27;;;;;;;20.23;2.67;;;;;;;;;;2066591;28;20058;-63
2022/02/09 08:59:47;;;;;;;21.92;3.40;;;;;;;;;;2067295;28;20552;-64
2022/02/09 09:01:11;;;;;;;16.23;2.85;;;;;;;;;;2069147;28;20121;-65
2022/02/09 09:02:34;;;;;;;14.77;2.05;;;;;;;;;;2068549;28;20026;-64
2022/02/09 09:03:56;;;;;;;11.20;2.25;;;;;;;;;;2067252;28;20030;-64
2022/02/09 09:05:23;;;;;;;15.35;2.47;;;;;;;;;;2066563;28;20035;-64
2022/02/09 09:06:45;;;;;;;21.52;3.33;;;;;;;;;;2071634;28;20030;-64
2022/02/09 09:08:18;;;;;;;16.55;3.28;;;;;;;;;;2068724;28;20030;-64
2022/02/09 09:11:40;;;;;;;9.85;1.63;;;;;;;;;;2067594;28;20381;-65
2022/02/09 09:17:50;;;;;;;11.60;2.88;;;;;;;;;;2067775;28;20025;-65
2022/02/09 09:25:16;;;;;;;16.10;3.13;;;;;;;;;;2067756;28;20038;-62
2022/02/09 10:01:28;;;;;;;10.15;1.90;;;;;;;;;;2067202;28;20061;-67
2022/02/09 10:33:05;;;;;;;10.85;2.35;;;;;;;;;;2062970;28;20034;-65
2022/02/09 10:34:29;;;;;;;9.68;2.47;;;;;;;;;;2065623;28;20034;-64
2022/02/09 10:36:00;;;;;;;10.25;2.28;;;;;;;;;;2059582;28;20484;-64
2022/02/09 10:37:28;;;;;;;8.70;2.13;;;;;;;;;;2063576;28;20435;-65
2022/02/09 10:38:50;;;;;;;12.73;2.70;;;;;;;;;;2067501;28;20027;-64
2022/02/09 10:40:25;;;;;;;16.27;2.80;;;;;;;;;;2066333;28;20091;-64
2022/02/09 10:41:50;;;;;;;12.57;2.08;;;;;;;;;;2062910;28;20026;-65
2022/02/09 10:43:25;;;;;;;10.02;1.90;;;;;;;;;;2066814;28;20480;-65
2022/02/09 10:44:46;;;;;;;11.27;1.80;;;;;;;;;;2067697;28;20018;-64
2022/02/09 10:46:20;;;;;;;12.48;2.13;;;;;;;;;;2065854;28;20435;-65
2022/02/09 10:47:39;;;;;;;;;;;;;;;;;;2067626;28;20050;-65
2022/02/09 10:49:01;;;;;;;14.38;1.98;;;;;;;;;;2066301;28;19910;-65
2022/02/09 10:50:36;;;;;;;9.93;2.20;;;;;;;;;;2066803;28;20034;-65
2022/02/09 10:53:21;;;;;;;7.60;1.92;;;;;;;;;;2067026;28;20492;-65
2022/02/09 10:54:39;;;;;;;16.73;2.78;;;;;;;;;;2067333;28;20105;-64
2022/02/09 10:56:01;;;;;;;9.77;1.55;;;;;;;;;;2065299;28;20074;-64
2022/02/09 10:57:20;;;;;;;12.35;2.40;;;;;;;;;;2062971;28;20022;-65
2022/02/09 10:58:39;;;;;;;8.98;3.35;;;;;;;;;;2066830;28;20025;-65
2022/02/09 10:59:58;;;;;;;13.48;2.30;;;;;;;;;;2067922;28;20026;-65
2022/02/09 11:01:17;;;;;;;10.23;3.60;;;;;;;;;;2066137;28;20052;-64
2022/02/09 11:02:36;;;;;;;11.70;2.22;;;;;;;;;;2067177;28;20030;-65
2022/02/09 11:03:56;;;;;;;16.42;2.63;;;;;;;;;;2067652;28;20112;-64
2022/02/09 11:05:17;;;;;;;14.73;2.17;;;;;;;;;;2065673;28;20026;-64
2022/02/09 11:06:39;;;;;;;15.85;2.70;;;;;;;;;;2065818;28;20042;-65
2022/02/09 11:07:58;;;;;;;12.93;2.40;;;;;;;;;;2067712;28;20039;-65
2022/02/09 11:09:18;;;;;;;15.68;3.33;;;;;;;;;;2066993;28;20034;-65
2022/02/09 11:10:37;;;;;;;12.07;1.85;;;;;;;;;;2066416;28;20042;-65
2022/02/09 11:11:56;;;;;;;13.05;2.40;;;;;;;;;;2067391;28;20041;-65
2022/02/09 11:13:15;;;;;;;14.80;2.55;;;;;;;;;;2065807;28;20034;-66
2022/02/09 11:14:34;;;;;;;11.93;2.15;;;;;;;;;;2067828;28;20488;-65
2022/02/09 11:15:53;;;;;;;14.18;2.40;;;;;;;;;;2065389;28;20034;-65
2022/02/09 11:17:12;;;;;;;9.60;2.22;;;;;;;;;;2065780;28;20066;-66
2022/02/09 11:18:31;;;;;;;10.75;2.20;;;;;;;;;;2067142;28;20058;-65
2022/02/09 11:19:52;;;;;;;11.40;2.92;;;;;;;;;;2067457;28;20446;-66
2022/02/09 11:21:14;;;;;;;14.02;2.20;;;;;;;;;;2066442;28;20117;-65
2022/02/09 11:22:39;;;;;;;11.15;2.72;;;;;;;;;;2067446;28;20027;-66
2022/02/09 11:24:07;;;;;;;13.02;2.45;;;;;;;;;;2068474;28;20069;-65
2022/02/09 11:25:29;;;;;;;8.02;2.15;;;;;;;;;;2068367;28;20026;-65
2022/02/09 11:27:19;;;;;;;13.85;2.75;;;;;;;;;;2067813;28;20030;-66
2022/02/09 11:28:42;;;;;;;7.22;1.55;;;;;;;;;;2067846;28;20391;-65
2022/02/09 11:30:02;;;;;;;;;;;;;;;;;;2069087;28;20030;-66
2022/02/09 11:31:31;;;;;;;8.80;1.42;;;;;;;;;;2064763;28;19993;-65
2022/02/09 11:33:07;;;;;;;11.73;1.70;;;;;;;;;;2065573;28;20039;-66
2022/02/09 11:34:26;;;;;;;10.35;1.77;;;;;;;;;;2066172;28;20050;-66
2022/02/09 11:36:06;;;;;;;8.57;2.13;;;;;;;;;;2065905;28;20472;-65
2022/02/09 11:37:53;;;;;;;10.90;2.33;;;;;;;;;;2065888;28;20046;-66
2022/02/09 11:39:33;;;;;;;9.25;1.80;;;;;;;;;;2068414;28;20030;-65
2022/02/09 11:41:08;;;;;;;12.40;2.08;;;;;;;;;;2071907;28;20109;-65
2022/02/09 11:42:44;;;;;;;11.18;2.13;;;;;;;;;;2066887;28;20038;-65
2022/02/09 11:44:11;;;;;;;8.35;1.92;;;;;;;;;;2067556;28;20515;-65
2022/02/09 11:47:24;;;;;;;13.18;2.05;;;;;;;;;;2067378;28;20079;-66
2022/02/09 12:09:15;;;;;;;6.75;2.15;;;;;;;;;;2066884;28;20022;-65
2022/02/09 12:10:35;;;;;;;;;;;;;;;;;;2066170;28;20105;-66
2022/02/09 12:11:58;;;;;;;6.03;1.15;;;;;;;;;;2066109;28;20020;-66
2022/02/09 12:13:41;;;;;;;11.63;2.45;;;;;;;;;;2066729;28;20038;-66
2022/02/09 12:16:47;;;;;;;7.60;1.73;;;;;;;;;;2068158;28;20034;-64
2022/02/09 12:18:25;;;;;;;3.20;1.08;;;;;;;;;;2067878;28;20038;-66
2022/02/09 12:19:50;;;;;;;6.70;1.45;;;;;;;;;;2069363;28;20037;-65
2022/02/09 12:21:17;;;;;;;5.72;1.35;;;;;;;;;;2068053;28;20079;-66
2022/02/09 12:22:44;;;;;;;8.73;1.73;;;;;;;;;;2067063;28;20046;-66
2022/02/09 12:24:15;;;;;;;5.40;1.00;;;;;;;;;;2075947;28;20066;-66
2022/02/09 12:25:37;;;;;;;5.22;1.42;;;;;;;;;;2069907;28;20035;-66
2022/02/09 12:26:56;;;;;;;7.85;2.10;;;;;;;;;;2066384;28;20043;-66
2022/02/09 12:28:16;;;;;;;11.60;2.08;;;;;;;;;;2067450;28;20473;-66
2022/02/09 12:29:38;;;;;;;7.15;1.30;;;;;;;;;;2069165;28;20030;-66
2022/02/09 12:31:04;;;;;;;5.68;1.25;;;;;;;;;;2068196;28;20086;-66
2022/02/09 12:32:29;;;;;;;8.40;2.00;;;;;;;;;;2069186;28;20160;-66
2022/02/09 12:33:50;;;;;;;2.22;0.82;;;;;;;;;;2069191;28;20038;-66
2022/02/09 12:35:10;;;;;;;4.95;1.88;;;;;;;;;;2067790;28;20026;-66
2022/02/09 12:36:33;;;;;;;5.85;1.58;;;;;;;;;;2068218;28;20403;-66
2022/02/09 12:37:52;;;;;;;10.75;1.40;;;;;;;;;;2066967;28;20042;-66
2022/02/09 12:39:13;;;;;;;8.80;1.50;;;;;;;;;;2068191;28;20038;-65
2022/02/09 12:40:34;;;;;;;2.80;0.88;;;;;;;;;;2068903;28;20485;-66
2022/02/09 12:41:59;;;;;;;13.18;2.45;;;;;;;;;;2067376;28;20484;-65
2022/02/09 12:43:18;;;;;;;7.75;1.20;;;;;;;;;;2068166;28;20033;-66
2022/02/09 12:44:37;;;;;;;9.63;1.73;;;;;;;;;;2069233;28;20026;-65
2022/02/09 12:45:56;;;;;;;3.30;1.20;;;;;;;;;;2068281;28;20030;-66
2022/02/09 12:47:14;;;;;;;9.35;1.33;;;;;;;;;;2067795;28;20035;-66
2022/02/09 12:48:33;;;;;;;5.97;1.38;;;;;;;;;;2067539;28;20034;-66
2022/02/09 12:49:52;;;;;;;6.43;1.80;;;;;;;;;;2068101;28;20034;-66
2022/02/09 12:51:20;;;;;;;8.88;1.52;;;;;;;;;;2067297;28;20958;-65
2022/02/09 12:52:40;;;;;;;7.50;1.95;;;;;;;;;;2068156;28;20057;-66
2022/02/09 12:54:00;;;;;;;4.97;1.17;;;;;;;;;;2069288;28;20034;-65
2022/02/09 12:55:20;;;;;;;8.15;1.63;;;;;;;;;;2067145;28;20136;-65
2022/02/09 12:56:44;;;;;;;4.65;1.92;;;;;;;;;;2074527;28;20030;-65
2022/02/09 12:58:05;;;;;;;9.32;2.15;;;;;;;;;;2073189;27;20552;-66
2022/02/09 12:59:24;;;;;;;9.82;2.13;;;;;;;;;;2068385;28;20042;-65
2022/02/09 13:00:47;;;;;;;10.38;1.77;;;;;;;;;;2066391;28;20026;-65
2022/02/09 13:02:06;;;;;;;5.13;1.05;;;;;;;;;;2067427;28;20034;-64
2022/02/09 13:03:25;;;;;;;4.70;1.48;;;;;;;;;;2063410;28;20030;-65
2022/02/09 13:04:43;;;;;;;10.90;1.45;;;;;;;;;;2067359;28;20038;-65
2022/02/09 13:06:04;;;;;;;8.20;1.60;;;;;;;;;;2067576;28;20026;-65
2022/02/09 13:07:24;;;;;;;11.40;1.83;;;;;;;;;;2067236;28;20480;-65
2022/02/09 13:08:49;;;;;;;7.68;1.40;;;;;;;;;;2068079;28;20038;-65
2022/02/09 13:10:08;;;;;;;7.88;1.52;;;;;;;;;;2067353;28;20033;-64
2022/02/09 13:11:30;;;;;;;7.45;1.38;;;;;;;;;;2068248;28;20030;-64
2022/02/09 13:12:49;;;;;;;7.15;1.45;;;;;;;;;;2065836;28;20423;-65
2022/02/09 13:14:13;;;;;;;5.00;1.73;;;;;;;;;;2067716;28;20368;-65
2022/02/09 13:15:37;;;;;;;10.85;1.55;;;;;;;;;;2068437;28;20026;-64
2022/02/09 13:17:20;;;;;;;7.30;1.40;;;;;;;;;;2068986;28;20022;-65
2022/02/09 14:13:09;;;;;;;6.20;1.67;;;;;;;;;;2067366;28;20109;-65
2022/02/09 14:31:33;;;;;;;6.22;1.80;;;;;;;;;;2067090;28;20419;-66
2022/02/09 14:35:45;;;;;;;2.83;0.82;;;;;;;;;;2067527;28;20031;-66
2022/02/09 14:50:49;;;;;;;7.57;1.75;;;;;;;;;;2067374;28;20030;-64
2022/02/09 14:54:01;;;;;;;8.70;1.35;;;;;;;;;;2066717;28;20030;-66
2022/02/09 14:55:28;;;;;;;6.22;0.82;;;;;;;;;;2066315;28;20041;-63
2022/02/09 14:56:58;;;;;;;4.28;1.30;;;;;;;;;;2065944;28;20041;-63
2022/02/09 14:58:24;;;;;;;7.07;1.50;;;;;;;;;;2067407;28;20034;-64
2022/02/09 15:01:19;;;;;;;8.73;1.90;;;;;;;;;;2066514;28;20030;-64
2022/02/09 15:02:58;;;;;;;11.43;1.83;;;;;;;;;;2068389;28;20070;-65
2022/02/09 15:07:35;;;;;;;6.13;1.17;;;;;;;;;;2066662;28;20034;-64
2022/02/09 15:09:04;;;;;;;7.25;1.60;;;;;;;;;;2067335;28;20022;-65
2022/02/09 15:10:32;;;;;;;11.55;1.20;;;;;;;;;;2065497;28;20504;-63
2022/02/09 15:12:00;;;;;;;8.43;1.27;;;;;;;;;;2064526;28;20030;-64
2022/02/09 15:13:36;;;;;;;4.80;0.82;;;;;;;;;;2065103;28;20026;-64
2022/02/09 15:16:32;;;;;;;4.88;1.15;;;;;;;;;;2066031;28;20034;-64
2022/02/09 15:21:14;;;;;;;4.85;1.15;;;;;;;;;;2064523;28;20039;-65
2022/02/09 15:22:33;;;;;;;9.38;1.80;;;;;;;;;;2067328;28;20062;-65
2022/02/09 15:23:56;;;;;;;8.40;1.88;;;;;;;;;;2066349;28;20140;-65
2022/02/09 15:25:19;;;;;;;7.28;1.77;;;;;;;;;;2065651;28;20026;-65
2022/02/09 15:26:38;;;;;;;9.98;1.98;;;;;;;;;;2065220;28;20651;-64
2022/02/09 15:27:59;;;;;;;7.40;1.48;;;;;;;;;;2065989;28;20029;-64
2022/02/09 15:29:19;;;;;;;11.50;2.33;;;;;;;;;;2066778;28;20042;-66
2022/02/09 15:30:51;;;;;;;4.47;1.35;;;;;;;;;;2066311;28;20041;-65
2022/02/09 15:32:27;;;;;;;3.10;1.15;;;;;;;;;;2068081;28;20110;-65
2022/02/09 15:33:50;;;;;;;5.53;1.48;;;;;;;;;;2066942;28;20030;-65
2022/02/09 15:35:18;;;;;;;8.15;1.60;;;;;;;;;;2067550;28;20035;-64
2022/02/09 15:36:52;;;;;;;6.55;1.90;;;;;;;;;;2066660;28;20415;-65
2022/02/09 15:38:20;;;;;;;6.72;1.25;;;;;;;;;;2066225;28;20177;-65
2022/02/09 15:39:46;;;;;;;4.72;1.00;;;;;;;;;;2064794;28;20130;-66
2022/02/09 15:41:16;;;;;;;8.90;2.03;;;;;;;;;;2065493;28;20038;-65
2022/02/09 15:57:22;;;;;;;6.03;1.35;;;;;;;;;;2064817;28;20034;-65
2022/02/09 16:08:53;;;;;;;9.52;2.00;;;;;;;;;;2065972;28;21684;-65
2022/02/09 16:10:35;;;;;;;7.85;1.45;;;;;;;;;;2065811;28;20030;-65
2022/02/09 16:17:01;;;;;;;6.75;1.88;;;;;;;;;;2065452;28;20043;-66
2022/02/09 16:23:45;;;;;;;6.68;1.55;;;;;;;;;;2065409;28;20503;-64
2022/02/09 16:34:23;;;;;;;11.70;2.28;;;;;;;;;;2067046;28;20057;-64
2022/02/09 16:45:09;;;;;;;7.55;1.33;;;;;;;;;;2066664;28;20034;-64
2022/02/09 16:46:29;;;;;;;7.32;1.42;;;;;;;;;;2069198;28;20030;-65
2022/02/09 16:47:59;;;;;;;4.22;0.80;;;;;;;;;;2067715;28;20030;-64
2022/02/09 16:51:12;;;;;;;11.48;2.55;;;;;;;;;;2086799;28;20062;-64
2022/02/09 16:52:41;;;;;;;3.50;1.58;;;;;;;;;;2064958;28;20023;-66
2022/02/09 16:54:10;;;;;;;9.00;1.10;;;;;;;;;;2066596;28;20042;-66
2022/02/09 16:55:53;;;;;;;6.90;2.03;;;;;;;;;;2066357;28;20025;-65
2022/02/09 17:11:16;;;;;;;8.07;1.45;;;;;;;;;;2068595;28;20052;-65